sensor_id;sensor_type;location;lat;lon;timestamp;temperature;humidity
65707;SHT31;52423;43.512;5.220;2023-02-28T00:01:29;5.77;81.48
65707;SHT31;52423;43.512;5.220;2023-02-28T00:03:54;5.78;81.03
65707;SHT31;52423;43.512;5.220;2023-02-28T00:06:21;5.72;81.78
65707;SHT31;52423;43.512;5.220;2023-02-28T00:08:58;5.75;81.19
65707;SHT31;52423;43.512;5.220;2023-02-28T00:11:24;5.74;81.39
65707;SHT31;52423;43.512;5.220;2023-02-28T00:13:59;5.68;80.67
65707;SHT31;52423;43.512;5.220;2023-02-28T00:16:27;5.75;78.04
65707;SHT31;52423;43.512;5.220;2023-02-28T00:18:53;5.77;79.58
65707;SHT31;52423;43.512;5.220;2023-02-28T00:21:19;5.74;78.24
65707;SHT31;52423;43.512;5.220;2023-02-28T00:23:45;5.72;80.17
65707;SHT31;52423;43.512;5.220;2023-02-28T00:26:11;5.71;79.32
65707;SHT31;52423;43.512;5.220;2023-02-28T00:28:46;5.68;79.58
65707;SHT31;52423;43.512;5.220;2023-02-28T00:31:11;5.69;79.59
65707;SHT31;52423;43.512;5.220;2023-02-28T00:33:36;5.64;78.08
65707;SHT31;52423;43.512;5.220;2023-02-28T00:36:08;5.67;77.96
65707;SHT31;52423;43.512;5.220;2023-02-28T00:38:33;5.62;75.47
65707;SHT31;52423;43.512;5.220;2023-02-28T00:41:05;5.64;77.85
65707;SHT31;52423;43.512;5.220;2023-02-28T00:43:35;5.61;78.83
65707;SHT31;52423;43.512;5.220;2023-02-28T00:46:07;5.54;76.94
65707;SHT31;52423;43.512;5.220;2023-02-28T00:48:36;5.59;77.84
65707;SHT31;52423;43.512;5.220;2023-02-28T00:51:01;5.52;77.11
65707;SHT31;52423;43.512;5.220;2023-02-28T00:53:27;5.54;76.66
65707;SHT31;52423;43.512;5.220;2023-02-28T00:55:52;5.54;76.01
65707;SHT31;52423;43.512;5.220;2023-02-28T00:58:27;5.54;76.62
65707;SHT31;52423;43.512;5.220;2023-02-28T01:00:52;5.55;75.33
65707;SHT31;52423;43.512;5.220;2023-02-28T01:03:18;5.51;74.80
65707;SHT31;52423;43.512;5.220;2023-02-28T01:05:45;5.54;73.98
65707;SHT31;52423;43.512;5.220;2023-02-28T01:08:11;5.58;76.06
65707;SHT31;52423;43.512;5.220;2023-02-28T01:10:45;5.55;75.45
65707;SHT31;52423;43.512;5.220;2023-02-28T01:13:11;5.55;75.31
65707;SHT31;52423;43.512;5.220;2023-02-28T01:15:37;5.54;75.43
65707;SHT31;52423;43.512;5.220;2023-02-28T01:18:03;5.50;75.37
65707;SHT31;52423;43.512;5.220;2023-02-28T01:20:28;5.43;75.17
65707;SHT31;52423;43.512;5.220;2023-02-28T01:23:03;5.41;74.59
65707;SHT31;52423;43.512;5.220;2023-02-28T01:25:28;5.40;74.58
65707;SHT31;52423;43.512;5.220;2023-02-28T01:27:59;5.41;72.82
65707;SHT31;52423;43.512;5.220;2023-02-28T01:30:24;5.38;73.72
65707;SHT31;52423;43.512;5.220;2023-02-28T01:32:50;5.41;72.93
65707;SHT31;52423;43.512;5.220;2023-02-28T01:35:18;5.33;72.27
65707;SHT31;52423;43.512;5.220;2023-02-28T01:37:44;5.33;72.44
65707;SHT31;52423;43.512;5.220;2023-02-28T01:40:10;5.34;72.71
65707;SHT31;52423;43.512;5.220;2023-02-28T01:42:35;5.38;72.38
65707;SHT31;52423;43.512;5.220;2023-02-28T01:45:06;5.31;72.09
65707;SHT31;52423;43.512;5.220;2023-02-28T01:47:40;5.37;71.72
65707;SHT31;52423;43.512;5.220;2023-02-28T01:50:12;5.37;74.04
65707;SHT31;52423;43.512;5.220;2023-02-28T01:52:39;5.37;73.37
65707;SHT31;52423;43.512;5.220;2023-02-28T01:55:06;5.37;72.61
65707;SHT31;52423;43.512;5.220;2023-02-28T01:57:36;5.34;71.30
65707;SHT31;52423;43.512;5.220;2023-02-28T02:00:13;5.34;71.31
65707;SHT31;52423;43.512;5.220;2023-02-28T02:02:59;5.31;72.05
65707;SHT31;52423;43.512;5.220;2023-02-28T02:05:30;5.37;73.31
65707;SHT31;52423;43.512;5.220;2023-02-28T02:08:13;5.38;73.62
65707;SHT31;52423;43.512;5.220;2023-02-28T02:10:52;5.31;72.48
65707;SHT31;52423;43.512;5.220;2023-02-28T02:30:21;4.97;79.03
65707;SHT31;52423;43.512;5.220;2023-02-28T02:43:54;4.73;83.48
65707;SHT31;52423;43.512;5.220;2023-02-28T02:46:29;4.65;84.00
65707;SHT31;52423;43.512;5.220;2023-02-28T02:49:04;4.78;84.42
65707;SHT31;52423;43.512;5.220;2023-02-28T02:51:32;4.75;84.66
65707;SHT31;52423;43.512;5.220;2023-02-28T02:54:23;4.62;85.01
65707;SHT31;52423;43.512;5.220;2023-02-28T02:56:53;4.55;84.95
65707;SHT31;52423;43.512;5.220;2023-02-28T02:59:21;4.52;85.48
65707;SHT31;52423;43.512;5.220;2023-02-28T03:01:56;4.55;84.89
65707;SHT31;52423;43.512;5.220;2023-02-28T03:04:30;4.54;85.67
65707;SHT31;52423;43.512;5.220;2023-02-28T03:06:57;4.54;86.24
65707;SHT31;52423;43.512;5.220;2023-02-28T03:09:33;4.59;86.71
65707;SHT31;52423;43.512;5.220;2023-02-28T03:11:59;4.58;86.38
65707;SHT31;52423;43.512;5.220;2023-02-28T03:22:52;4.56;87.40
65707;SHT31;52423;43.512;5.220;2023-02-28T03:30:52;4.56;87.73
65707;SHT31;52423;43.512;5.220;2023-02-28T03:36:10;4.65;89.48
65707;SHT31;52423;43.512;5.220;2023-02-28T03:38:49;4.62;89.57
65707;SHT31;52423;43.512;5.220;2023-02-28T03:41:19;4.55;89.02
65707;SHT31;52423;43.512;5.220;2023-02-28T03:44:04;4.47;88.47
65707;SHT31;52423;43.512;5.220;2023-02-28T03:46:36;4.42;87.21
65707;SHT31;52423;43.512;5.220;2023-02-28T03:49:20;4.35;86.92
65707;SHT31;52423;43.512;5.220;2023-02-28T03:51:51;4.35;88.69
65707;SHT31;52423;43.512;5.220;2023-02-28T03:54:31;4.25;87.62
65707;SHT31;52423;43.512;5.220;2023-02-28T03:59:51;4.17;88.60
65707;SHT31;52423;43.512;5.220;2023-02-28T04:02:19;4.11;87.48
65707;SHT31;52423;43.512;5.220;2023-02-28T04:04:44;4.08;87.67
65707;SHT31;52423;43.512;5.220;2023-02-28T04:07:15;4.13;88.69
65707;SHT31;52423;43.512;5.220;2023-02-28T04:09:44;4.04;87.98
65707;SHT31;52423;43.512;5.220;2023-02-28T04:12:09;3.87;87.65
65707;SHT31;52423;43.512;5.220;2023-02-28T04:14:35;3.86;88.07
65707;SHT31;52423;43.512;5.220;2023-02-28T04:17:00;3.73;88.01
65707;SHT31;52423;43.512;5.220;2023-02-28T04:19:25;3.63;87.45
65707;SHT31;52423;43.512;5.220;2023-02-28T04:21:53;3.63;86.93
65707;SHT31;52423;43.512;5.220;2023-02-28T04:24:24;3.56;86.87
65707;SHT31;52423;43.512;5.220;2023-02-28T04:26:52;3.56;87.20
65707;SHT31;52423;43.512;5.220;2023-02-28T04:29:21;3.46;87.20
65707;SHT31;52423;43.512;5.220;2023-02-28T04:31:46;3.49;88.03
65707;SHT31;52423;43.512;5.220;2023-02-28T04:34:12;3.51;86.66
65707;SHT31;52423;43.512;5.220;2023-02-28T04:36:38;3.51;88.00
65707;SHT31;52423;43.512;5.220;2023-02-28T04:39:03;3.58;88.21
65707;SHT31;52423;43.512;5.220;2023-02-28T04:41:35;3.63;88.65
65707;SHT31;52423;43.512;5.220;2023-02-28T04:44:00;3.77;88.85
65707;SHT31;52423;43.512;5.220;2023-02-28T04:46:26;3.83;88.69
65707;SHT31;52423;43.512;5.220;2023-02-28T04:48:52;3.85;89.47
65707;SHT31;52423;43.512;5.220;2023-02-28T04:51:26;3.90;89.74
65707;SHT31;52423;43.512;5.220;2023-02-28T04:53:54;3.85;89.48
65707;SHT31;52423;43.512;5.220;2023-02-28T04:56:20;3.90;88.91
65707;SHT31;52423;43.512;5.220;2023-02-28T04:58:46;3.98;88.77
65707;SHT31;52423;43.512;5.220;2023-02-28T05:01:28;3.93;88.73
65707;SHT31;52423;43.512;5.220;2023-02-28T05:03:56;3.96;89.30
65707;SHT31;52423;43.512;5.220;2023-02-28T05:06:24;3.91;88.34
65707;SHT31;52423;43.512;5.220;2023-02-28T05:08:50;3.96;88.87
65707;SHT31;52423;43.512;5.220;2023-02-28T05:11:27;4.00;89.21
65707;SHT31;52423;43.512;5.220;2023-02-28T05:13:54;4.07;88.96
65707;SHT31;52423;43.512;5.220;2023-02-28T05:16:23;4.07;89.61
65707;SHT31;52423;43.512;5.220;2023-02-28T05:18:48;4.10;89.10
65707;SHT31;52423;43.512;5.220;2023-02-28T05:23:51;4.13;89.11
65707;SHT31;52423;43.512;5.220;2023-02-28T05:26:17;4.11;88.81
65707;SHT31;52423;43.512;5.220;2023-02-28T05:28:43;4.06;88.49
65707;SHT31;52423;43.512;5.220;2023-02-28T05:31:10;4.04;89.16
65707;SHT31;52423;43.512;5.220;2023-02-28T05:33:36;3.98;88.80
65707;SHT31;52423;43.512;5.220;2023-02-28T05:36:02;3.93;89.18
65707;SHT31;52423;43.512;5.220;2023-02-28T05:38:36;3.90;88.07
65707;SHT31;52423;43.512;5.220;2023-02-28T05:41:06;3.91;88.51
65707;SHT31;52423;43.512;5.220;2023-02-28T05:43:32;3.98;88.80
65707;SHT31;52423;43.512;5.220;2023-02-28T05:45:58;3.89;87.47
65707;SHT31;52423;43.512;5.220;2023-02-28T05:48:23;3.91;87.93
65707;SHT31;52423;43.512;5.220;2023-02-28T05:50:48;3.93;87.88
65707;SHT31;52423;43.512;5.220;2023-02-28T05:53:17;3.87;86.70
65707;SHT31;52423;43.512;5.220;2023-02-28T05:55:42;3.96;89.02
65707;SHT31;52423;43.512;5.220;2023-02-28T05:58:07;3.96;87.98
65707;SHT31;52423;43.512;5.220;2023-02-28T06:00:33;3.91;89.16
65707;SHT31;52423;43.512;5.220;2023-02-28T06:02:58;3.77;89.04
65707;SHT31;52423;43.512;5.220;2023-02-28T06:05:27;3.87;89.39
65707;SHT31;52423;43.512;5.220;2023-02-28T06:07:53;3.80;86.02
65707;SHT31;52423;43.512;5.220;2023-02-28T06:10:18;3.83;87.02
65707;SHT31;52423;43.512;5.220;2023-02-28T06:12:45;3.85;87.41
65707;SHT31;52423;43.512;5.220;2023-02-28T06:15:15;3.85;87.57
65707;SHT31;52423;43.512;5.220;2023-02-28T06:17:50;3.83;88.88
65707;SHT31;52423;43.512;5.220;2023-02-28T06:20:15;3.77;89.21
65707;SHT31;52423;43.512;5.220;2023-02-28T06:22:41;3.83;88.40
65707;SHT31;52423;43.512;5.220;2023-02-28T06:25:07;3.89;87.50
65707;SHT31;52423;43.512;5.220;2023-02-28T06:27:33;3.82;89.00
65707;SHT31;52423;43.512;5.220;2023-02-28T06:29:59;3.85;88.64
65707;SHT31;52423;43.512;5.220;2023-02-28T06:32:36;3.80;88.85
65707;SHT31;52423;43.512;5.220;2023-02-28T06:35:02;3.83;88.68
65707;SHT31;52423;43.512;5.220;2023-02-28T06:37:28;3.85;88.40
65707;SHT31;52423;43.512;5.220;2023-02-28T06:39:55;3.85;88.74
65707;SHT31;52423;43.512;5.220;2023-02-28T06:42:27;3.87;88.72
65707;SHT31;52423;43.512;5.220;2023-02-28T06:44:56;3.83;90.34
65707;SHT31;52423;43.512;5.220;2023-02-28T06:47:22;3.72;90.08
65707;SHT31;52423;43.512;5.220;2023-02-28T06:49:48;3.76;89.85
65707;SHT31;52423;43.512;5.220;2023-02-28T06:52:14;3.76;89.60
65707;SHT31;52423;43.512;5.220;2023-02-28T06:54:42;3.76;88.32
65707;SHT31;52423;43.512;5.220;2023-02-28T06:57:08;3.77;87.51
65707;SHT31;52423;43.512;5.220;2023-02-28T06:59:34;3.77;85.26
65707;SHT31;52423;43.512;5.220;2023-02-28T07:02:00;3.83;85.57
65707;SHT31;52423;43.512;5.220;2023-02-28T07:04:27;3.89;86.00
65707;SHT31;52423;43.512;5.220;2023-02-28T07:06:55;3.91;85.78
65707;SHT31;52423;43.512;5.220;2023-02-28T07:09:26;3.98;86.20
65707;SHT31;52423;43.512;5.220;2023-02-28T07:11:55;3.97;86.06
65707;SHT31;52423;43.512;5.220;2023-02-28T07:14:23;4.07;87.00
65707;SHT31;52423;43.512;5.220;2023-02-28T07:16:48;4.10;87.03
65707;SHT31;52423;43.512;5.220;2023-02-28T07:19:21;3.97;85.71
65707;SHT31;52423;43.512;5.220;2023-02-28T07:21:46;4.03;87.76
65707;SHT31;52423;43.512;5.220;2023-02-28T07:24:12;4.10;89.01
65707;SHT31;52423;43.512;5.220;2023-02-28T07:26:40;4.13;89.15
65707;SHT31;52423;43.512;5.220;2023-02-28T07:29:06;4.16;89.27
65707;SHT31;52423;43.512;5.220;2023-02-28T07:31:31;4.22;88.82
65707;SHT31;52423;43.512;5.220;2023-02-28T07:34:02;4.25;87.74
65707;SHT31;52423;43.512;5.220;2023-02-28T07:36:28;4.08;89.19
65707;SHT31;52423;43.512;5.220;2023-02-28T07:38:54;4.17;89.51
65707;SHT31;52423;43.512;5.220;2023-02-28T07:41:22;4.37;89.07
65707;SHT31;52423;43.512;5.220;2023-02-28T07:43:49;4.40;89.91
65707;SHT31;52423;43.512;5.220;2023-02-28T07:46:16;4.34;87.40
65707;SHT31;52423;43.512;5.220;2023-02-28T07:48:42;4.31;87.02
65707;SHT31;52423;43.512;5.220;2023-02-28T07:51:08;4.41;89.60
65707;SHT31;52423;43.512;5.220;2023-02-28T07:53:34;4.40;88.83
65707;SHT31;52423;43.512;5.220;2023-02-28T07:56:08;4.52;88.37
65707;SHT31;52423;43.512;5.220;2023-02-28T07:58:35;4.45;88.05
65707;SHT31;52423;43.512;5.220;2023-02-28T08:01:17;4.64;86.76
65707;SHT31;52423;43.512;5.220;2023-02-28T08:03:43;4.65;84.26
65707;SHT31;52423;43.512;5.220;2023-02-28T08:06:25;4.68;82.69
65707;SHT31;52423;43.512;5.220;2023-02-28T08:08:52;4.73;85.79
65707;SHT31;52423;43.512;5.220;2023-02-28T08:11:18;4.55;80.85
65707;SHT31;52423;43.512;5.220;2023-02-28T08:13:44;4.55;83.26
65707;SHT31;52423;43.512;5.220;2023-02-28T08:16:11;4.35;77.58
65707;SHT31;52423;43.512;5.220;2023-02-28T08:18:39;4.28;79.25
65707;SHT31;52423;43.512;5.220;2023-02-28T08:21:09;4.30;79.55
65707;SHT31;52423;43.512;5.220;2023-02-28T08:23:35;4.25;78.67
65707;SHT31;52423;43.512;5.220;2023-02-28T08:26:00;4.10;76.75
65707;SHT31;52423;43.512;5.220;2023-02-28T08:28:26;4.18;77.59
65707;SHT31;52423;43.512;5.220;2023-02-28T08:30:51;4.14;76.86
65707;SHT31;52423;43.512;5.220;2023-02-28T08:33:17;4.14;77.83
65707;SHT31;52423;43.512;5.220;2023-02-28T08:35:42;4.21;79.99
65707;SHT31;52423;43.512;5.220;2023-02-28T08:38:07;4.08;77.34
65707;SHT31;52423;43.512;5.220;2023-02-28T08:40:42;4.22;82.20
65707;SHT31;52423;43.512;5.220;2023-02-28T08:43:10;4.21;82.90
65707;SHT31;52423;43.512;5.220;2023-02-28T08:45:36;4.20;81.00
65707;SHT31;52423;43.512;5.220;2023-02-28T08:48:01;4.28;82.43
65707;SHT31;52423;43.512;5.220;2023-02-28T08:50:27;4.37;83.16
65707;SHT31;52423;43.512;5.220;2023-02-28T08:52:52;4.48;82.61
65707;SHT31;52423;43.512;5.220;2023-02-28T08:55:17;4.55;80.81
65707;SHT31;52423;43.512;5.220;2023-02-28T08:57:43;4.64;79.03
65707;SHT31;52423;43.512;5.220;2023-02-28T09:00:09;4.71;81.33
65707;SHT31;52423;43.512;5.220;2023-02-28T09:02:41;4.66;78.14
65707;SHT31;52423;43.512;5.220;2023-02-28T09:05:08;4.58;76.49
65707;SHT31;52423;43.512;5.220;2023-02-28T09:07:34;4.59;78.13
65707;SHT31;52423;43.512;5.220;2023-02-28T09:10:02;4.56;77.55
65707;SHT31;52423;43.512;5.220;2023-02-28T09:12:34;4.69;81.64
65707;SHT31;52423;43.512;5.220;2023-02-28T09:15:00;4.66;80.48
65707;SHT31;52423;43.512;5.220;2023-02-28T09:17:25;4.59;78.22
65707;SHT31;52423;43.512;5.220;2023-02-28T09:19:50;4.64;78.76
65707;SHT31;52423;43.512;5.220;2023-02-28T09:22:16;4.69;82.55
65707;SHT31;52423;43.512;5.220;2023-02-28T09:24:41;4.65;79.02
65707;SHT31;52423;43.512;5.220;2023-02-28T09:27:10;4.72;82.36
65707;SHT31;52423;43.512;5.220;2023-02-28T09:29:35;4.78;80.63
65707;SHT31;52423;43.512;5.220;2023-02-28T09:32:01;4.82;81.87
65707;SHT31;52423;43.512;5.220;2023-02-28T09:34:28;4.79;79.04
65707;SHT31;52423;43.512;5.220;2023-02-28T09:36:55;4.90;81.56
65707;SHT31;52423;43.512;5.220;2023-02-28T09:39:30;4.90;80.82
65707;SHT31;52423;43.512;5.220;2023-02-28T09:41:57;4.97;81.09
65707;SHT31;52423;43.512;5.220;2023-02-28T09:44:30;5.03;78.48
65707;SHT31;52423;43.512;5.220;2023-02-28T09:47:00;5.09;76.40
65707;SHT31;52423;43.512;5.220;2023-02-28T09:49:37;5.16;80.02
65707;SHT31;52423;43.512;5.220;2023-02-28T09:52:28;5.13;75.59
65707;SHT31;52423;43.512;5.220;2023-02-28T09:54:54;5.16;75.94
65707;SHT31;52423;43.512;5.220;2023-02-28T09:57:36;5.17;75.37
65707;SHT31;52423;43.512;5.220;2023-02-28T10:05:17;5.30;71.82
65707;SHT31;52423;43.512;5.220;2023-02-28T10:10:44;5.37;75.04
65707;SHT31;52423;43.512;5.220;2023-02-28T10:16:14;5.28;70.52
65707;SHT31;52423;43.512;5.220;2023-02-28T10:18:46;5.28;71.13
65707;SHT31;52423;43.512;5.220;2023-02-28T10:21:21;5.33;72.41
65707;SHT31;52423;43.512;5.220;2023-02-28T10:23:48;5.28;69.33
65707;SHT31;52423;43.512;5.220;2023-02-28T10:26:16;5.27;74.61
65707;SHT31;52423;43.512;5.220;2023-02-28T10:28:42;5.24;71.30
65707;SHT31;52423;43.512;5.220;2023-02-28T10:31:18;5.22;68.58
65707;SHT31;52423;43.512;5.220;2023-02-28T10:33:44;5.24;70.61
65707;SHT31;52423;43.512;5.220;2023-02-28T10:36:19;5.27;69.25
65707;SHT31;52423;43.512;5.220;2023-02-28T10:38:53;5.37;68.34
65707;SHT31;52423;43.512;5.220;2023-02-28T10:41:31;5.30;67.85
65707;SHT31;52423;43.512;5.220;2023-02-28T10:44:14;5.34;67.81
65707;SHT31;52423;43.512;5.220;2023-02-28T10:46:41;5.40;71.30
65707;SHT31;52423;43.512;5.220;2023-02-28T10:49:25;5.43;70.80
65707;SHT31;52423;43.512;5.220;2023-02-28T10:51:57;5.54;68.21
65707;SHT31;52423;43.512;5.220;2023-02-28T10:54:29;5.64;72.45
65707;SHT31;52423;43.512;5.220;2023-02-28T10:57:15;5.69;71.18
65707;SHT31;52423;43.512;5.220;2023-02-28T10:59:41;5.67;69.43
65707;SHT31;52423;43.512;5.220;2023-02-28T11:04:54;5.74;72.79
65707;SHT31;52423;43.512;5.220;2023-02-28T11:07:23;5.78;69.05
65707;SHT31;52423;43.512;5.220;2023-02-28T11:09:52;5.79;66.07
65707;SHT31;52423;43.512;5.220;2023-02-28T11:12:39;5.75;67.63
65707;SHT31;52423;43.512;5.220;2023-02-28T11:17:54;5.85;70.80
65707;SHT31;52423;43.512;5.220;2023-02-28T11:20:26;5.89;68.08
65707;SHT31;52423;43.512;5.220;2023-02-28T11:22:53;5.84;69.91
65707;SHT31;52423;43.512;5.220;2023-02-28T11:25:32;5.85;71.78
65707;SHT31;52423;43.512;5.220;2023-02-28T11:28:00;5.81;68.52
65707;SHT31;52423;43.512;5.220;2023-02-28T11:32:52;5.89;71.81
65707;SHT31;52423;43.512;5.220;2023-02-28T11:35:24;5.98;70.55
65707;SHT31;52423;43.512;5.220;2023-02-28T11:37:51;6.01;70.21
65707;SHT31;52423;43.512;5.220;2023-02-28T11:48:34;6.23;70.97
65707;SHT31;52423;43.512;5.220;2023-02-28T11:51:24;6.20;70.68
65707;SHT31;52423;43.512;5.220;2023-02-28T11:56:33;6.20;67.60
65707;SHT31;52423;43.512;5.220;2023-02-28T12:13:12;6.29;69.87
65707;SHT31;52423;43.512;5.220;2023-02-28T12:21:01;6.33;71.61
65707;SHT31;52423;43.512;5.220;2023-02-28T12:26:36;6.32;67.30
65707;SHT31;52423;43.512;5.220;2023-02-28T12:32:04;6.32;68.96
65707;SHT31;52423;43.512;5.220;2023-02-28T12:34:37;6.34;65.59
65707;SHT31;52423;43.512;5.220;2023-02-28T12:37:10;6.44;64.67
65707;SHT31;52423;43.512;5.220;2023-02-28T12:39:44;6.41;67.72
65707;SHT31;52423;43.512;5.220;2023-02-28T12:42:13;6.41;67.86
65707;SHT31;52423;43.512;5.220;2023-02-28T12:45:22;6.40;69.72
65707;SHT31;52423;43.512;5.220;2023-02-28T12:47:52;6.37;64.98
65707;SHT31;52423;43.512;5.220;2023-02-28T12:50:20;6.43;65.76
65707;SHT31;52423;43.512;5.220;2023-02-28T12:58:33;6.57;69.73
65707;SHT31;52423;43.512;5.220;2023-02-28T13:09:13;6.71;66.70
65707;SHT31;52423;43.512;5.220;2023-02-28T13:11:46;6.80;62.79
65707;SHT31;52423;43.512;5.220;2023-02-28T13:19:30;6.78;62.62
65707;SHT31;52423;43.512;5.220;2023-02-28T13:22:03;6.78;63.32
65707;SHT31;52423;43.512;5.220;2023-02-28T13:29:40;6.70;62.44
65707;SHT31;52423;43.512;5.220;2023-02-28T13:39:52;6.63;64.20
65707;SHT31;52423;43.512;5.220;2023-02-28T13:47:34;6.73;63.34
65707;SHT31;52423;43.512;5.220;2023-02-28T13:53:16;6.80;65.92
65707;SHT31;52423;43.512;5.220;2023-02-28T14:11:30;6.54;62.98
65707;SHT31;52423;43.512;5.220;2023-02-28T14:13:57;6.53;65.29
65707;SHT31;52423;43.512;5.220;2023-02-28T14:16:55;6.50;64.27
65707;SHT31;52423;43.512;5.220;2023-02-28T14:19:26;6.46;61.05
65707;SHT31;52423;43.512;5.220;2023-02-28T14:33:23;6.68;60.22
65707;SHT31;52423;43.512;5.220;2023-02-28T14:38:56;6.67;63.05
65707;SHT31;52423;43.512;5.220;2023-02-28T14:41:23;6.71;62.55
65707;SHT31;52423;43.512;5.220;2023-02-28T14:43:59;6.76;59.40
65707;SHT31;52423;43.512;5.220;2023-02-28T14:46:38;6.74;62.70
65707;SHT31;52423;43.512;5.220;2023-02-28T14:49:05;6.78;60.74
65707;SHT31;52423;43.512;5.220;2023-02-28T14:51:32;6.74;60.25
65707;SHT31;52423;43.512;5.220;2023-02-28T14:54:01;6.73;62.46
65707;SHT31;52423;43.512;5.220;2023-02-28T14:56:37;6.74;59.80
65707;SHT31;52423;43.512;5.220;2023-02-28T14:59:29;6.76;60.78
65707;SHT31;52423;43.512;5.220;2023-02-28T15:02:23;6.74;61.09
65707;SHT31;52423;43.512;5.220;2023-02-28T15:04:56;6.74;63.78
65707;SHT31;52423;43.512;5.220;2023-02-28T15:07:21;6.76;63.92
65707;SHT31;52423;43.512;5.220;2023-02-28T15:12:53;6.71;60.34
65707;SHT31;52423;43.512;5.220;2023-02-28T15:15:29;6.68;61.61
65707;SHT31;52423;43.512;5.220;2023-02-28T15:18:14;6.74;62.30
65707;SHT31;52423;43.512;5.220;2023-02-28T15:20:45;6.78;58.86
65707;SHT31;52423;43.512;5.220;2023-02-28T15:23:14;6.78;59.84
65707;SHT31;52423;43.512;5.220;2023-02-28T15:25:41;6.81;58.33
65707;SHT31;52423;43.512;5.220;2023-02-28T15:28:19;6.85;59.91
65707;SHT31;52423;43.512;5.220;2023-02-28T15:31:25;6.78;60.87
65707;SHT31;52423;43.512;5.220;2023-02-28T15:33:53;6.74;62.66
65707;SHT31;52423;43.512;5.220;2023-02-28T15:36:20;6.78;61.60
65707;SHT31;52423;43.512;5.220;2023-02-28T15:38:59;6.77;62.02
65707;SHT31;52423;43.512;5.220;2023-02-28T15:41:38;6.71;60.85
65707;SHT31;52423;43.512;5.220;2023-02-28T15:49:23;6.73;61.80
65707;SHT31;52423;43.512;5.220;2023-02-28T15:51:53;6.73;63.09
65707;SHT31;52423;43.512;5.220;2023-02-28T15:54:28;6.64;62.69
65707;SHT31;52423;43.512;5.220;2023-02-28T15:57:01;6.61;63.63
65707;SHT31;52423;43.512;5.220;2023-02-28T15:59:30;6.60;64.22
65707;SHT31;52423;43.512;5.220;2023-02-28T16:02:22;6.58;61.61
65707;SHT31;52423;43.512;5.220;2023-02-28T16:07:39;6.61;59.66
65707;SHT31;52423;43.512;5.220;2023-02-28T16:10:06;6.58;63.07
65707;SHT31;52423;43.512;5.220;2023-02-28T16:12:35;6.53;63.00
65707;SHT31;52423;43.512;5.220;2023-02-28T16:15:07;6.53;64.47
65707;SHT31;52423;43.512;5.220;2023-02-28T16:17:33;6.46;63.90
65707;SHT31;52423;43.512;5.220;2023-02-28T16:19:59;6.44;64.55
65707;SHT31;52423;43.512;5.220;2023-02-28T16:22:26;6.43;65.04
65707;SHT31;52423;43.512;5.220;2023-02-28T16:24:52;6.40;65.19
65707;SHT31;52423;43.512;5.220;2023-02-28T16:27:31;6.41;65.54
65707;SHT31;52423;43.512;5.220;2023-02-28T16:29:57;6.39;62.61
65707;SHT31;52423;43.512;5.220;2023-02-28T16:32:23;6.37;62.64
65707;SHT31;52423;43.512;5.220;2023-02-28T16:34:51;6.37;61.78
65707;SHT31;52423;43.512;5.220;2023-02-28T16:37:17;6.34;62.93
65707;SHT31;52423;43.512;5.220;2023-02-28T16:39:44;6.32;62.72
65707;SHT31;52423;43.512;5.220;2023-02-28T16:42:24;6.29;62.23
65707;SHT31;52423;43.512;5.220;2023-02-28T16:44:51;6.29;60.05
65707;SHT31;52423;43.512;5.220;2023-02-28T16:47:16;6.25;61.63
65707;SHT31;52423;43.512;5.220;2023-02-28T16:49:42;6.25;60.29
65707;SHT31;52423;43.512;5.220;2023-02-28T16:52:20;6.25;62.84
65707;SHT31;52423;43.512;5.220;2023-02-28T16:54:45;6.22;59.75
65707;SHT31;52423;43.512;5.220;2023-02-28T16:57:25;6.25;62.72
65707;SHT31;52423;43.512;5.220;2023-02-28T16:59:51;6.20;61.54
65707;SHT31;52423;43.512;5.220;2023-02-28T17:02:19;6.29;61.15
65707;SHT31;52423;43.512;5.220;2023-02-28T17:04:45;6.28;61.96
65707;SHT31;52423;43.512;5.220;2023-02-28T17:07:12;6.25;60.82
65707;SHT31;52423;43.512;5.220;2023-02-28T17:09:44;6.19;60.63
65707;SHT31;52423;43.512;5.220;2023-02-28T17:12:10;6.18;64.07
65707;SHT31;52423;43.512;5.220;2023-02-28T17:14:36;6.12;64.81
65707;SHT31;52423;43.512;5.220;2023-02-28T17:17:04;6.06;66.68
65707;SHT31;52423;43.512;5.220;2023-02-28T17:19:30;6.02;67.61
65707;SHT31;52423;43.512;5.220;2023-02-28T17:21:58;5.96;66.48
65707;SHT31;52423;43.512;5.220;2023-02-28T17:24:23;5.89;66.29
65707;SHT31;52423;43.512;5.220;2023-02-28T17:26:49;5.94;66.45
65707;SHT31;52423;43.512;5.220;2023-02-28T17:29:16;5.94;65.99
65707;SHT31;52423;43.512;5.220;2023-02-28T17:31:42;5.91;67.01
65707;SHT31;52423;43.512;5.220;2023-02-28T17:34:13;5.94;68.40
65707;SHT31;52423;43.512;5.220;2023-02-28T17:36:44;5.92;69.41
65707;SHT31;52423;43.512;5.220;2023-02-28T17:39:11;5.92;68.05
65707;SHT31;52423;43.512;5.220;2023-02-28T17:41:52;5.78;69.34
65707;SHT31;52423;43.512;5.220;2023-02-28T17:44:19;5.87;68.72
65707;SHT31;52423;43.512;5.220;2023-02-28T17:46:45;5.84;68.79
65707;SHT31;52423;43.512;5.220;2023-02-28T17:49:10;5.89;69.29
65707;SHT31;52423;43.512;5.220;2023-02-28T17:51:41;5.91;68.61
65707;SHT31;52423;43.512;5.220;2023-02-28T17:54:07;5.85;68.63
65707;SHT31;52423;43.512;5.220;2023-02-28T17:56:32;5.87;66.92
65707;SHT31;52423;43.512;5.220;2023-02-28T17:59:03;5.91;66.40
65707;SHT31;52423;43.512;5.220;2023-02-28T18:01:29;5.94;64.89
65707;SHT31;52423;43.512;5.220;2023-02-28T18:03:55;5.95;65.31
65707;SHT31;52423;43.512;5.220;2023-02-28T18:06:26;5.92;65.57
65707;SHT31;52423;43.512;5.220;2023-02-28T18:09:04;5.92;66.47
65707;SHT31;52423;43.512;5.220;2023-02-28T18:11:29;5.92;67.71
65707;SHT31;52423;43.512;5.220;2023-02-28T18:14:09;5.87;66.61
65707;SHT31;52423;43.512;5.220;2023-02-28T18:16:34;5.79;65.20
65707;SHT31;52423;43.512;5.220;2023-02-28T18:19:00;5.82;64.41
65707;SHT31;52423;43.512;5.220;2023-02-28T18:21:28;5.85;64.57
65707;SHT31;52423;43.512;5.220;2023-02-28T18:23:54;5.82;65.09
65707;SHT31;52423;43.512;5.220;2023-02-28T18:26:28;5.84;65.83
65707;SHT31;52423;43.512;5.220;2023-02-28T18:28:54;5.85;62.32
65707;SHT31;52423;43.512;5.220;2023-02-28T18:31:20;5.92;61.86
65707;SHT31;52423;43.512;5.220;2023-02-28T18:33:52;5.92;64.59
65707;SHT31;52423;43.512;5.220;2023-02-28T18:36:20;5.88;64.17
65707;SHT31;52423;43.512;5.220;2023-02-28T18:38:48;5.89;65.70
65707;SHT31;52423;43.512;5.220;2023-02-28T18:41:15;5.85;64.99
65707;SHT31;52423;43.512;5.220;2023-02-28T18:43:40;5.85;64.57
65707;SHT31;52423;43.512;5.220;2023-02-28T18:46:13;5.87;65.32
65707;SHT31;52423;43.512;5.220;2023-02-28T18:48:39;5.84;63.30
65707;SHT31;52423;43.512;5.220;2023-02-28T18:51:06;5.89;63.06
65707;SHT31;52423;43.512;5.220;2023-02-28T18:53:34;5.85;63.00
65707;SHT31;52423;43.512;5.220;2023-02-28T18:56:11;5.82;62.38
65707;SHT31;52423;43.512;5.220;2023-02-28T18:58:38;5.81;62.37
65707;SHT31;52423;43.512;5.220;2023-02-28T19:01:18;5.77;64.92
65707;SHT31;52423;43.512;5.220;2023-02-28T19:03:46;5.69;64.81
65707;SHT31;52423;43.512;5.220;2023-02-28T19:06:11;5.61;65.40
65707;SHT31;52423;43.512;5.220;2023-02-28T19:08:37;5.65;63.88